Acazulco, Mexico

10:56 AM CDT on April 21, 2018 (GMT -0500)
Foresta Dreams Lagoons | | Change Station

Elev 8474 ft 19.24 °N, 99.56 °W | Updated 8 seconds ago

Clear
Clear
64.2 °F
Feels Like 64.2 °F
N
3.6
Wind Variable Wind from WNW
Gusts 4.9 mph

Today
High -- | Low -- °F
--% Chance of Precip.
Yesterday
High -- | Low -- °F
Precip. -- in
Pressure 29.86 in
Visibility 4.0 miles
Clouds Clear
Dew Point 45 °F
Humidity 49%
Rainfall 0.00 in
Snow Depth Not available.
7:15 AM 7:57 PM
Waxing Crescent, 36% visible
METAR MMTO 211447Z 00000KT 4SM SKC 15/03 A3041 RMK SLP110 52011 961 HZY CS VSBY LWR N
Pressure 29.86 in
Visibility 4.0 miles
Clouds Clear
Dew Point 45 °F
Humidity 49%
Rainfall 0.00 in
Snow Depth Not available.
7:15 AM 7:57 PM
Waxing Crescent, 36% visible
METAR MMTO 211447Z 00000KT 4SM SKC 15/03 A3041 RMK SLP110 52011 961 HZY CS VSBY LWR N

Get Severe Weather Alerts

Thanks for signing up!

Be on the lookout for a verification email in your inbox.

You'll start receiving the daily forecast at 6 AM.

×

10-Day Weather Forecast

No radar image for this location.
×

Almanac

Astronomy

Apr. 21, 2018 Rise Set
Actual Time
Civil Twilight
Nautical Twilight
Astronomical Twilight
Moon
Length of Visible Light
Length of Day
Tomorrow will be .
, % of the Moon is Illuminated

Today's Extremes

Country Highs Country Lows

Community

WunderPhotos

Category 6

Welcome to Category 6. This is the collective home for Weather Underground's featured writeups by Dr. Jeff Masters (right), Bob Henson (left), Chris Burt, and other regular contributors.

Nearby

Air Quality

  Air Quality AQ Index Pollutant
Not available.

Snow Depth

Station Depth Elevation

Earthquake Activity

City Distance Mag. Time & Date
Minimum magnitude displayed is 2.5.

Coastal Water Temperatures

Place Temperature

Stations

Nearby Weather Stations

Station Location Temp. Windchill Dew Point Humidity Wind Precip. Elev Updated Type